createdAt,value
2019-05-17T00:00:50.676Z,9.70
2019-05-17T00:01:54.622Z,9.70
2019-05-17T00:02:58.364Z,9.80
2019-05-17T00:04:02.299Z,9.80
2019-05-17T00:05:07.296Z,9.80
2019-05-17T00:06:11.330Z,9.70
2019-05-17T00:07:16.693Z,9.80
2019-05-17T00:08:33.648Z,9.80
2019-05-17T00:09:26.802Z,9.70
2019-05-17T00:10:30.864Z,9.70
2019-05-17T00:11:36.623Z,9.70
2019-05-17T00:12:40.264Z,9.70
2019-05-17T00:13:46.488Z,9.80
2019-05-17T00:14:49.658Z,9.80
2019-05-17T00:15:53.476Z,9.80
2019-05-17T00:16:57.470Z,9.70
2019-05-17T00:18:01.159Z,9.70
2019-05-17T00:19:07.301Z,9.70
2019-05-17T00:20:11.433Z,9.60
2019-05-17T00:21:16.974Z,9.60
2019-05-17T00:22:20.892Z,9.60
2019-05-17T00:23:26.755Z,9.70
2019-05-17T00:24:30.216Z,9.60
2019-05-17T00:25:36.609Z,9.60
2019-05-17T00:26:39.887Z,9.60
2019-05-17T00:27:43.823Z,9.60
2019-05-17T00:28:47.571Z,9.70
2019-05-17T00:29:51.547Z,9.70
2019-05-17T00:30:57.120Z,9.70
2019-05-17T00:32:00.910Z,9.70
2019-05-17T00:33:04.651Z,9.60
2019-05-17T00:34:08.589Z,9.60
2019-05-17T00:35:12.747Z,9.60
2019-05-17T00:36:17.903Z,9.60
2019-05-17T00:37:21.727Z,9.60
2019-05-17T00:38:27.402Z,9.50
2019-05-17T00:39:31.387Z,9.50
2019-05-17T00:40:36.541Z,9.60
2019-05-17T00:41:40.688Z,9.60
2019-05-17T00:42:46.703Z,9.50
2019-05-17T00:43:50.038Z,9.50
2019-05-17T00:44:53.971Z,9.50
2019-05-17T00:45:57.723Z,9.50
2019-05-17T00:47:01.672Z,9.50
2019-05-17T00:48:06.455Z,9.50
2019-05-17T00:49:10.691Z,9.50
2019-05-17T00:50:16.964Z,9.50
2019-05-17T00:51:20.769Z,9.50
2019-05-17T00:52:24.547Z,9.50
2019-05-17T00:53:28.495Z,9.50
2019-05-17T00:54:32.275Z,9.40
2019-05-17T00:55:36.440Z,9.40
2019-05-17T00:56:40.496Z,9.40
2019-05-17T00:57:44.429Z,9.40
2019-05-17T00:58:48.175Z,9.30
2019-05-17T00:59:52.146Z,9.30
2019-05-17T01:00:57.097Z,9.30
2019-05-17T01:02:01.139Z,9.30
2019-05-17T01:03:07.136Z,9.30
2019-05-17T01:04:10.931Z,9.30
2019-05-17T01:05:17.034Z,9.30
2019-05-17T01:06:20.654Z,9.30
2019-05-17T01:07:26.750Z,9.30
2019-05-17T01:08:30.138Z,9.30
2019-05-17T01:09:33.887Z,9.30
2019-05-17T01:10:37.868Z,9.40
2019-05-17T01:11:41.683Z,9.40
2019-05-17T01:12:48.031Z,9.40
2019-05-17T01:13:51.031Z,9.40
2019-05-17T01:14:55.004Z,9.30
2019-05-17T01:15:58.763Z,9.40
2019-05-17T01:17:02.705Z,9.40
2019-05-17T01:18:07.153Z,9.40
2019-05-17T01:19:11.491Z,9.40
2019-05-17T01:20:17.400Z,9.30
2019-05-17T01:21:21.463Z,9.30
2019-05-17T01:22:26.259Z,9.40
2019-05-17T01:23:30.271Z,9.30
2019-05-17T01:24:34.051Z,9.30
2019-05-17T01:25:38.259Z,9.30
2019-05-17T01:26:42.019Z,9.30
2019-05-17T01:27:47.487Z,9.30
2019-05-17T01:28:51.443Z,9.40
2019-05-17T01:29:57.246Z,9.40
2019-05-17T01:31:00.783Z,9.40
2019-05-17T01:32:06.741Z,9.40
2019-05-17T01:33:10.152Z,9.40
2019-05-17T01:34:16.464Z,9.40
2019-05-17T01:35:19.514Z,9.40
2019-05-17T01:36:23.451Z,9.40
2019-05-17T01:37:27.780Z,9.40
2019-05-17T01:38:31.850Z,9.40
2019-05-17T01:39:37.464Z,9.40
2019-05-17T01:40:41.215Z,9.40
2019-05-17T01:41:46.784Z,9.30
2019-05-17T01:42:50.595Z,9.30
2019-05-17T01:43:56.509Z,9.30
2019-05-17T01:44:59.935Z,9.30
2019-05-17T01:46:03.687Z,9.30
2019-05-17T01:47:07.661Z,9.40
2019-05-17T01:48:11.442Z,9.40
2019-05-17T01:49:16.467Z,9.40
2019-05-17T01:50:20.444Z,9.40
2019-05-17T01:51:26.351Z,9.30
2019-05-17T01:52:29.826Z,9.30
2019-05-17T01:53:33.762Z,9.30
2019-05-17T01:54:37.510Z,9.30
2019-05-17T01:55:41.448Z,9.20
2019-05-17T01:56:46.207Z,9.30
2019-05-17T01:57:50.277Z,9.20
2019-05-17T01:58:54.020Z,9.30
2019-05-17T01:59:57.955Z,9.30
2019-05-17T02:01:01.737Z,9.30
2019-05-17T02:02:07.194Z,9.20
2019-05-17T02:03:10.990Z,9.20
2019-05-17T02:04:17.224Z,9.20
2019-05-17T02:05:20.475Z,9.20
2019-05-17T02:06:24.416Z,9.20
2019-05-17T02:07:28.198Z,9.20
2019-05-17T02:08:32.135Z,9.20
2019-05-17T02:09:41.172Z,9.30
2019-05-17T02:10:41.549Z,9.30
2019-05-17T02:11:46.692Z,9.30
2019-05-17T02:12:50.682Z,9.30
2019-05-17T02:13:56.179Z,9.30
2019-05-17T02:15:00.192Z,9.30
2019-05-17T02:16:04.034Z,9.30
2019-05-17T02:17:07.970Z,9.30
2019-05-17T02:18:11.727Z,9.40
2019-05-17T02:19:17.439Z,9.40
2019-05-17T02:20:21.463Z,9.30
2019-05-17T02:21:27.384Z,9.40
2019-05-17T02:22:30.868Z,9.40
2019-05-17T02:23:36.972Z,9.40
2019-05-17T02:24:40.204Z,9.40
2019-05-17T02:25:44.189Z,9.30
2019-05-17T02:26:47.935Z,9.40
2019-05-17T02:27:52.380Z,9.40
2019-05-17T02:28:56.087Z,9.50
2019-05-17T02:30:02.630Z,9.50
2019-05-17T02:31:05.669Z,9.60
2019-05-17T02:32:12.616Z,9.60
2019-05-17T02:33:15.169Z,9.60
2019-05-17T02:34:19.095Z,9.60
2019-05-17T02:35:23.248Z,9.60
2019-05-17T02:36:27.279Z,9.50
2019-05-17T02:37:33.387Z,9.50
2019-05-17T02:38:36.660Z,9.50
2019-05-17T02:39:53.952Z,9.40
2019-05-17T02:40:46.003Z,9.40
2019-05-17T02:41:53.051Z,9.30
2019-05-17T02:42:55.449Z,9.40
2019-05-17T02:44:02.163Z,9.40
2019-05-17T02:45:06.015Z,9.30
2019-05-17T02:46:09.781Z,9.40
2019-05-17T02:47:13.751Z,9.40
2019-05-17T02:48:17.495Z,9.40
2019-05-17T02:49:23.593Z,9.30
2019-05-17T02:50:26.871Z,9.30
2019-05-17T02:51:32.452Z,9.30
2019-05-17T02:52:36.466Z,9.30
2019-05-17T02:53:42.995Z,9.20
2019-05-17T02:54:45.839Z,9.10
2019-05-17T02:55:49.784Z,9.10
2019-05-17T02:56:53.935Z,9.10
2019-05-17T02:57:58.117Z,9.20
2019-05-17T02:59:03.696Z,9.20
2019-05-17T03:00:08.419Z,9.20
2019-05-17T03:01:12.832Z,9.20
2019-05-17T03:02:16.850Z,9.30
2019-05-17T03:03:23.460Z,9.30
2019-05-17T03:04:26.187Z,9.30
2019-05-17T03:05:33.416Z,9.30
2019-05-17T03:06:35.595Z,9.40
2019-05-17T03:07:39.390Z,9.40
2019-05-17T03:08:43.324Z,9.40
2019-05-17T03:09:47.085Z,9.40
2019-05-17T03:10:53.422Z,9.40
2019-05-17T03:11:57.247Z,9.40
2019-05-17T03:13:03.961Z,9.40
2019-05-17T03:14:06.805Z,9.30
2019-05-17T03:15:13.014Z,9.30
2019-05-17T03:16:16.292Z,9.30
2019-05-17T03:17:22.964Z,9.30
2019-05-17T03:18:25.704Z,9.30
2019-05-17T03:19:32.538Z,9.30
2019-05-17T03:20:35.045Z,9.30
2019-05-17T03:21:38.978Z,9.30
2019-05-17T03:22:44.000Z,9.30
2019-05-17T03:23:48.405Z,9.30
2019-05-17T03:24:53.270Z,9.30
2019-05-17T03:25:57.463Z,9.40
2019-05-17T03:27:03.042Z,9.30
2019-05-17T03:28:06.934Z,9.30
2019-05-17T03:29:13.351Z,9.30
2019-05-17T03:30:18.272Z,9.20
2019-05-17T03:31:26.700Z,9.20
2019-05-17T03:32:28.718Z,9.30
2019-05-17T03:33:35.794Z,9.30
2019-05-17T03:34:44.501Z,9.30
2019-05-17T03:35:46.423Z,9.30
2019-05-17T03:36:55.858Z,9.30
2019-05-17T03:37:56.130Z,9.30
2019-05-17T03:39:03.053Z,9.30
2019-05-17T03:40:23.573Z,9.20
2019-05-17T03:41:22.869Z,9.20
2019-05-17T03:42:18.172Z,9.20
2019-05-17T03:43:22.761Z,9.20
2019-05-17T03:44:26.594Z,9.20
2019-05-17T03:45:33.616Z,9.20
2019-05-17T03:46:35.946Z,9.20
2019-05-17T03:47:39.945Z,9.20
2019-05-17T03:48:43.800Z,9.20
2019-05-17T03:49:47.747Z,9.20
2019-05-17T03:50:53.165Z,9.10
2019-05-17T03:51:57.299Z,9.10
2019-05-17T03:53:02.352Z,9.10
2019-05-17T03:54:06.596Z,9.10
2019-05-17T03:55:13.163Z,9.10
2019-05-17T03:56:16.436Z,9.00
2019-05-17T03:57:23.640Z,9.10
2019-05-17T03:58:25.769Z,9.00
2019-05-17T03:59:29.520Z,9.10
2019-05-17T04:00:35.379Z,9.10
2019-05-17T04:01:38.984Z,9.10
2019-05-17T04:02:44.345Z,9.00
2019-05-17T04:03:48.331Z,9.00
2019-05-17T04:04:53.135Z,8.90
2019-05-17T04:05:57.055Z,9.00
2019-05-17T04:07:03.447Z,9.10
2019-05-17T04:08:06.416Z,9.10
2019-05-17T04:09:13.438Z,9.10
2019-05-17T04:10:17.116Z,9.10
2019-05-17T04:11:31.116Z,9.10
2019-05-17T04:12:26.482Z,9.10
2019-05-17T04:13:33.580Z,9.10
2019-05-17T04:14:35.829Z,9.10
2019-05-17T04:15:43.137Z,9.10
2019-05-17T04:16:45.284Z,9.10
2019-05-17T04:17:49.229Z,9.10
2019-05-17T04:18:53.832Z,9.20
2019-05-17T04:19:57.733Z,9.20
2019-05-17T04:21:03.355Z,9.20
2019-05-17T04:22:07.083Z,9.20
2019-05-17T04:23:12.727Z,9.30
2019-05-17T04:24:16.473Z,9.20
2019-05-17T04:25:23.220Z,9.20
2019-05-17T04:26:25.833Z,9.20
2019-05-17T04:27:29.579Z,9.20
2019-05-17T04:28:33.827Z,9.20
2019-05-17T04:29:37.736Z,9.20
2019-05-17T04:30:43.222Z,9.20
2019-05-17T04:31:47.227Z,9.20
2019-05-17T04:32:52.716Z,9.30
2019-05-17T04:33:56.618Z,9.30
2019-05-17T04:35:03.661Z,9.40
2019-05-17T04:36:06.078Z,9.40
2019-05-17T04:37:12.906Z,9.40
2019-05-17T04:38:15.415Z,9.40
2019-05-17T04:39:22.409Z,9.40
2019-05-17T04:40:24.759Z,9.40
2019-05-17T04:41:41.313Z,9.40
2019-05-17T04:42:34.132Z,9.40
2019-05-17T04:43:38.063Z,9.30
2019-05-17T04:44:43.105Z,9.40
2019-05-17T04:45:47.265Z,9.30
2019-05-17T04:46:53.599Z,9.20
2019-05-17T04:47:56.649Z,9.30
2019-05-17T04:49:02.897Z,9.20
2019-05-17T04:50:06.310Z,9.30
2019-05-17T04:51:13.178Z,9.20
2019-05-17T04:52:15.750Z,9.30
2019-05-17T04:53:19.501Z,9.30
2019-05-17T04:54:23.439Z,9.30
2019-05-17T04:55:27.188Z,9.30
2019-05-17T04:56:33.363Z,9.30
2019-05-17T04:57:36.567Z,9.30
2019-05-17T04:58:42.886Z,9.30
2019-05-17T04:59:45.969Z,9.40
2019-05-17T05:00:52.912Z,9.40
2019-05-17T05:01:55.368Z,9.40
2019-05-17T05:02:59.347Z,9.40
2019-05-17T05:04:03.742Z,9.50
2019-05-17T05:05:08.282Z,9.50
2019-05-17T05:06:13.399Z,9.50
2019-05-17T05:07:17.608Z,9.50
2019-05-17T05:08:22.443Z,9.50
2019-05-17T05:09:26.534Z,9.50
2019-05-17T05:10:32.957Z,9.60
2019-05-17T05:11:51.579Z,9.60
2019-05-17T05:12:43.526Z,9.60
2019-05-17T05:13:46.876Z,9.70
2019-05-17T05:14:52.297Z,9.70
2019-05-17T05:15:56.387Z,9.70
2019-05-17T05:17:02.484Z,9.70
2019-05-17T05:18:05.799Z,9.80
2019-05-17T05:19:09.545Z,9.80
2019-05-17T05:20:13.773Z,9.80
2019-05-17T05:21:17.580Z,9.80
2019-05-17T05:22:22.495Z,9.70
2019-05-17T05:23:26.308Z,9.80
2019-05-17T05:24:31.554Z,9.90
2019-05-17T05:25:35.307Z,10.00
2019-05-17T05:26:39.249Z,10.00
2019-05-17T05:27:43.092Z,10.10
2019-05-17T05:28:49.577Z,10.10
2019-05-17T05:29:52.392Z,10.10
2019-05-17T05:30:56.336Z,10.10
2019-05-17T05:32:02.453Z,10.10
2019-05-17T05:33:05.728Z,10.10
2019-05-17T05:34:12.156Z,10.10
2019-05-17T05:35:15.133Z,10.10
2019-05-17T05:36:18.884Z,10.00
2019-05-17T05:37:23.311Z,10.00
2019-05-17T05:38:27.111Z,10.00
2019-05-17T05:39:31.973Z,10.10
2019-05-17T05:40:35.821Z,10.20
2019-05-17T05:41:39.767Z,10.20
2019-05-17T05:42:43.548Z,10.20
2019-05-17T05:43:47.567Z,10.20
2019-05-17T05:44:52.195Z,10.20
2019-05-17T05:45:56.966Z,10.20
2019-05-17T05:47:02.206Z,10.20
2019-05-17T05:48:06.207Z,10.30
2019-05-17T05:49:12.209Z,10.30
2019-05-17T05:50:17.660Z,10.30
2019-05-17T05:51:21.643Z,10.30
2019-05-17T05:52:25.691Z,10.30
2019-05-17T05:53:29.503Z,10.40
2019-05-17T05:54:33.485Z,10.40
2019-05-17T05:55:37.242Z,10.30
2019-05-17T05:56:42.217Z,10.30
2019-05-17T05:57:46.149Z,10.30
2019-05-17T05:58:52.334Z,10.30
2019-05-17T05:59:55.519Z,10.40
2019-05-17T06:01:02.056Z,10.30
2019-05-17T06:02:04.959Z,10.30
2019-05-17T06:03:08.908Z,10.30
2019-05-17T06:04:12.666Z,10.20
2019-05-17T06:05:17.448Z,10.20
2019-05-17T06:06:21.616Z,10.10
2019-05-17T06:07:25.598Z,10.10
2019-05-17T06:08:29.356Z,10.10
2019-05-17T06:09:33.300Z,10.10
2019-05-17T06:10:39.451Z,10.20
2019-05-17T06:11:42.631Z,10.20
2019-05-17T06:12:46.425Z,10.40
2019-05-17T06:13:52.355Z,10.40
2019-05-17T06:14:56.243Z,10.40
2019-05-17T06:16:02.413Z,10.50
2019-05-17T06:17:05.575Z,10.50
2019-05-17T06:18:11.965Z,10.60
2019-05-17T06:19:14.959Z,10.70
2019-05-17T06:20:19.047Z,10.70
2019-05-17T06:21:22.826Z,10.70
2019-05-17T06:22:26.748Z,10.70
2019-05-17T06:23:31.551Z,10.70
2019-05-17T06:24:35.721Z,10.70
2019-05-17T06:25:39.479Z,10.80
2019-05-17T06:26:43.414Z,10.80
2019-05-17T06:27:47.173Z,10.80
2019-05-17T06:28:51.846Z,10.80
2019-05-17T06:29:55.720Z,10.90
2019-05-17T06:30:59.690Z,10.90
2019-05-17T06:32:03.446Z,10.90
2019-05-17T06:33:07.398Z,10.90
2019-05-17T06:34:11.668Z,11.00
2019-05-17T06:35:15.849Z,11.00
2019-05-17T06:36:21.626Z,11.10
2019-05-17T06:37:25.190Z,11.20
2019-05-17T06:38:28.963Z,11.30
2019-05-17T06:39:33.052Z,11.30
2019-05-17T06:40:43.282Z,11.30
2019-05-17T06:41:47.228Z,11.40
2019-05-17T06:42:52.501Z,11.20
2019-05-17T06:43:56.602Z,11.20
2019-05-17T06:45:02.210Z,11.30
2019-05-17T06:46:06.051Z,11.30
2019-05-17T06:47:11.947Z,11.40
2019-05-17T06:48:15.390Z,11.40
2019-05-17T06:49:19.153Z,11.40
2019-05-17T06:50:23.698Z,11.40
2019-05-17T06:51:27.579Z,11.50
2019-05-17T06:52:32.650Z,11.50
2019-05-17T06:53:36.496Z,11.50
2019-05-17T06:54:41.730Z,11.50
2019-05-17T06:55:45.750Z,11.50
2019-05-17T06:56:49.713Z,11.60
2019-05-17T06:57:53.442Z,11.60
2019-05-17T06:58:57.400Z,11.60
2019-05-17T07:00:03.176Z,11.70
2019-05-17T07:01:09.419Z,11.70
2019-05-17T07:02:12.531Z,11.60
2019-05-17T07:03:16.481Z,11.50
2019-05-17T07:04:20.230Z,11.50
2019-05-17T07:05:25.488Z,11.50
2019-05-17T07:06:30.703Z,11.50
2019-05-17T07:07:34.651Z,11.50
2019-05-17T07:08:40.191Z,11.60
2019-05-17T07:09:44.000Z,11.60
2019-05-17T07:10:50.107Z,11.60
2019-05-17T07:11:53.375Z,11.60
2019-05-17T07:12:59.590Z,11.60
2019-05-17T07:14:02.872Z,11.70
2019-05-17T07:15:07.731Z,11.70
2019-05-17T07:16:11.726Z,11.80
2019-05-17T07:17:15.480Z,11.90
2019-05-17T07:18:19.560Z,11.90
2019-05-17T07:19:23.379Z,12.00
2019-05-17T07:20:27.327Z,12.00
2019-05-17T07:21:31.118Z,12.00
2019-05-17T07:22:35.144Z,12.00
2019-05-17T07:23:39.665Z,12.10
2019-05-17T07:24:43.732Z,12.10
2019-05-17T07:25:47.483Z,12.10
2019-05-17T07:26:51.455Z,12.10
2019-05-17T07:27:55.256Z,12.00
2019-05-17T07:28:59.338Z,11.90
2019-05-17T07:30:04.289Z,11.90
2019-05-17T07:31:10.106Z,12.00
2019-05-17T07:32:13.629Z,12.00
2019-05-17T07:33:19.775Z,12.00
2019-05-17T07:34:23.004Z,12.10
2019-05-17T07:35:26.934Z,12.00
2019-05-17T07:36:30.763Z,12.10
2019-05-17T07:37:34.691Z,12.10
2019-05-17T07:38:39.649Z,12.10
2019-05-17T07:39:43.695Z,12.10
2019-05-17T07:40:49.957Z,12.10
2019-05-17T07:41:53.146Z,12.10
2019-05-17T07:43:10.216Z,12.10
2019-05-17T07:44:02.496Z,12.20
2019-05-17T07:45:10.068Z,12.30
2019-05-17T07:46:14.267Z,12.30
2019-05-17T07:47:20.141Z,12.40
2019-05-17T07:48:23.657Z,12.40
2019-05-17T07:49:29.331Z,12.50
2019-05-17T07:50:33.010Z,12.50
2019-05-17T07:51:36.759Z,12.60
2019-05-17T07:52:40.756Z,12.60
2019-05-17T07:53:44.513Z,12.70
2019-05-17T07:54:50.809Z,12.70
2019-05-17T07:55:53.850Z,12.70
2019-05-17T07:57:00.243Z,12.80
2019-05-17T07:58:03.262Z,12.80
2019-05-17T07:59:09.419Z,12.80
2019-05-17T08:00:12.742Z,12.80
2019-05-17T08:01:16.755Z,12.80
2019-05-17T08:02:20.513Z,12.80
2019-05-17T08:03:25.076Z,12.70
2019-05-17T08:04:29.903Z,12.70
2019-05-17T08:05:34.016Z,12.80
2019-05-17T08:06:40.016Z,12.90
2019-05-17T08:07:43.358Z,13.10
2019-05-17T08:08:49.940Z,13.20
2019-05-17T08:09:52.749Z,13.40
2019-05-17T08:10:56.496Z,13.50
2019-05-17T08:12:00.505Z,13.50
2019-05-17T08:13:04.249Z,13.60
2019-05-17T08:14:10.389Z,13.50
2019-05-17T08:15:13.649Z,13.60
2019-05-17T08:16:19.528Z,13.60
2019-05-17T08:17:23.025Z,13.70
2019-05-17T08:18:29.448Z,13.60
2019-05-17T08:19:32.407Z,13.60
2019-05-17T08:20:36.346Z,13.70
2019-05-17T08:21:40.098Z,13.80
2019-05-17T08:22:44.084Z,13.90
2019-05-17T08:23:50.410Z,13.90
2019-05-17T08:24:53.508Z,13.80
2019-05-17T08:26:00.061Z,13.80
2019-05-17T08:27:02.839Z,13.70
2019-05-17T08:28:06.635Z,13.70
2019-05-17T08:29:10.650Z,13.70
2019-05-17T08:30:14.739Z,13.60
2019-05-17T08:31:20.213Z,13.60
2019-05-17T08:32:24.060Z,13.60
2019-05-17T08:33:29.819Z,13.70
2019-05-17T08:34:33.407Z,13.80
2019-05-17T08:35:37.355Z,13.90
2019-05-17T08:36:41.156Z,14.00
2019-05-17T08:37:45.095Z,14.10
2019-05-17T08:38:50.186Z,14.10
2019-05-17T08:39:54.212Z,14.30
2019-05-17T08:41:00.383Z,14.20
2019-05-17T08:42:03.621Z,14.30
2019-05-17T08:43:09.737Z,14.40
2019-05-17T08:44:12.960Z,14.50
2019-05-17T08:45:16.710Z,14.60
2019-05-17T08:46:20.665Z,14.70
2019-05-17T08:47:24.458Z,14.90
2019-05-17T08:48:29.468Z,15.00
2019-05-17T08:49:33.258Z,15.10
2019-05-17T08:50:37.206Z,15.20
2019-05-17T08:51:40.951Z,15.40
2019-05-17T08:52:44.938Z,15.40
2019-05-17T08:53:49.278Z,15.40
2019-05-17T08:54:53.336Z,15.20
2019-05-17T08:55:57.096Z,15.00
2019-05-17T08:57:01.039Z,15.00
2019-05-17T08:58:04.899Z,14.90
2019-05-17T08:59:09.585Z,15.00
2019-05-17T09:00:13.580Z,15.10
2019-05-17T09:01:19.602Z,15.20
2019-05-17T09:02:22.933Z,15.30
2019-05-17T09:03:26.920Z,15.20
2019-05-17T09:04:30.679Z,15.30
2019-05-17T09:05:34.695Z,15.40
2019-05-17T09:06:39.759Z,15.50
2019-05-17T09:07:43.807Z,15.60
2019-05-17T09:08:49.814Z,15.80
2019-05-17T09:09:53.191Z,15.90
2019-05-17T09:10:56.955Z,16.00
2019-05-17T09:12:00.896Z,16.00
2019-05-17T09:13:04.688Z,16.00
2019-05-17T09:14:10.492Z,16.00
2019-05-17T09:15:14.142Z,15.90
2019-05-17T09:16:19.577Z,15.90
2019-05-17T09:17:23.561Z,15.90
2019-05-17T09:18:29.968Z,15.90
2019-05-17T09:19:32.945Z,15.90
2019-05-17T09:20:36.895Z,15.80
2019-05-17T09:21:40.683Z,15.60
2019-05-17T09:22:44.627Z,15.60
2019-05-17T09:23:50.392Z,15.50
2019-05-17T09:24:53.980Z,15.40
2019-05-17T09:25:59.532Z,15.30
2019-05-17T09:27:03.368Z,15.20
2019-05-17T09:28:07.123Z,14.80
2019-05-17T09:29:11.062Z,14.60
2019-05-17T09:30:15.156Z,14.60
2019-05-17T09:31:20.393Z,14.60
2019-05-17T09:32:24.389Z,14.60
2019-05-17T09:33:30.068Z,14.60
2019-05-17T09:34:33.734Z,14.50
2019-05-17T09:35:37.671Z,14.60
2019-05-17T09:36:41.471Z,14.80
2019-05-17T09:37:45.420Z,14.90
2019-05-17T09:38:49.515Z,15.10
2019-05-17T09:39:53.555Z,15.30
2019-05-17T09:40:59.721Z,15.50
2019-05-17T09:42:02.911Z,15.80
2019-05-17T09:43:06.659Z,16.00
2019-05-17T09:44:15.946Z,15.90
2019-05-17T09:45:16.319Z,15.80
2019-05-17T09:46:20.272Z,15.70
2019-05-17T09:47:24.024Z,15.70
2019-05-17T09:48:30.373Z,15.50
2019-05-17T09:49:33.486Z,15.60
2019-05-17T09:50:39.626Z,15.60
2019-05-17T09:51:42.903Z,15.70
2019-05-17T09:52:49.259Z,15.70
2019-05-17T09:53:52.244Z,15.80
2019-05-17T09:54:56.236Z,15.90
2019-05-17T09:56:00.711Z,15.90
2019-05-17T09:57:04.704Z,16.00
2019-05-17T09:58:09.872Z,15.90
2019-05-17T09:59:14.070Z,15.70
2019-05-17T10:00:20.607Z,15.50
2019-05-17T10:01:23.903Z,15.40
2019-05-17T10:02:27.700Z,15.30
2019-05-17T10:03:31.646Z,15.20
2019-05-17T10:04:35.401Z,15.20
2019-05-17T10:05:40.530Z,15.10
2019-05-17T10:06:44.635Z,15.20
2019-05-17T10:07:50.767Z,15.10
2019-05-17T10:08:53.983Z,15.10
2019-05-17T10:09:59.751Z,15.10
2019-05-17T10:11:08.581Z,15.10
2019-05-17T10:12:09.530Z,15.10
2019-05-17T10:13:13.507Z,15.20
2019-05-17T10:14:25.785Z,15.20
2019-05-17T10:15:22.894Z,15.20
2019-05-17T10:16:26.895Z,15.30
2019-05-17T10:17:30.730Z,15.40
2019-05-17T10:18:34.682Z,15.40
2019-05-17T10:19:40.220Z,15.50
2019-05-17T10:20:44.022Z,15.50
2019-05-17T10:21:47.879Z,15.50
2019-05-17T10:22:51.831Z,15.60
2019-05-17T10:23:55.588Z,15.70
2019-05-17T10:25:00.309Z,15.80
2019-05-17T10:26:04.402Z,16.00
2019-05-17T10:27:10.915Z,16.20
2019-05-17T10:28:13.859Z,16.10
2019-05-17T10:29:17.807Z,16.20
2019-05-17T10:30:21.808Z,16.20
2019-05-17T10:31:25.760Z,16.20
2019-05-17T10:32:30.911Z,16.00
2019-05-17T10:33:35.115Z,15.80
2019-05-17T10:34:40.123Z,15.70
2019-05-17T10:35:44.197Z,15.80
2019-05-17T10:36:50.535Z,15.60
2019-05-17T10:37:53.587Z,15.70
2019-05-17T10:38:59.180Z,15.70
2019-05-17T10:40:02.933Z,15.60
2019-05-17T10:41:06.752Z,15.60
2019-05-17T10:42:10.771Z,15.50
2019-05-17T10:43:14.555Z,15.40
2019-05-17T10:44:19.878Z,15.40
2019-05-17T10:45:23.768Z,15.40
2019-05-17T10:46:29.942Z,15.30
2019-05-17T10:47:33.276Z,15.20
2019-05-17T10:48:37.212Z,15.10
2019-05-17T10:49:41.018Z,15.10
2019-05-17T10:50:45.031Z,15.10
2019-05-17T10:51:49.426Z,15.00
2019-05-17T10:52:53.435Z,15.00
2019-05-17T10:53:57.183Z,14.90
2019-05-17T10:55:01.168Z,14.80
2019-05-17T10:56:05.058Z,14.80
2019-05-17T10:57:10.406Z,14.90
2019-05-17T10:58:14.498Z,14.90
2019-05-17T10:59:20.321Z,15.00
2019-05-17T11:00:24.446Z,15.00
2019-05-17T11:01:30.491Z,15.10
2019-05-17T11:02:33.862Z,15.20
2019-05-17T11:03:39.775Z,15.20
2019-05-17T11:04:43.256Z,15.30
2019-05-17T11:05:47.205Z,15.40
2019-05-17T11:06:50.971Z,15.40
2019-05-17T11:07:54.906Z,15.50
2019-05-17T11:08:59.475Z,15.50
2019-05-17T11:10:04.095Z,15.60
2019-05-17T11:11:10.052Z,15.80
2019-05-17T11:12:13.442Z,15.80
2019-05-17T11:13:17.196Z,15.90
2019-05-17T11:14:21.131Z,16.00
2019-05-17T11:15:24.923Z,16.00
2019-05-17T11:16:28.918Z,16.10
2019-05-17T11:17:32.653Z,16.10
2019-05-17T11:18:36.602Z,16.30
2019-05-17T11:19:40.358Z,16.50
2019-05-17T11:20:44.344Z,16.70
2019-05-17T11:21:48.107Z,16.80
2019-05-17T11:22:52.054Z,16.90
2019-05-17T11:23:55.886Z,16.80
2019-05-17T11:24:59.825Z,17.00
2019-05-17T11:26:03.634Z,17.20
2019-05-17T11:27:07.572Z,17.40
2019-05-17T11:28:11.380Z,17.60
2019-05-17T11:29:15.279Z,17.80
2019-05-17T11:30:19.404Z,18.00
2019-05-17T11:31:23.384Z,18.20
2019-05-17T11:32:27.151Z,18.20
2019-05-17T11:33:31.099Z,18.10
2019-05-17T11:34:34.862Z,18.10
2019-05-17T11:35:38.822Z,18.20
2019-05-17T11:36:42.620Z,18.30
2019-05-17T11:37:46.593Z,18.40
2019-05-17T11:38:50.340Z,18.50
2019-05-17T11:39:54.291Z,18.50
2019-05-17T11:40:58.168Z,18.30
2019-05-17T11:42:02.164Z,18.10
2019-05-17T11:43:05.928Z,18.00
2019-05-17T11:44:09.947Z,17.80
2019-05-17T11:45:26.628Z,17.50
2019-05-17T11:46:35.037Z,17.30
2019-05-17T11:47:25.500Z,17.20
2019-05-17T11:48:29.474Z,17.10
2019-05-17T11:49:33.240Z,17.00
2019-05-17T11:50:37.246Z,16.90
2019-05-17T11:51:41.005Z,16.70
2019-05-17T11:52:44.942Z,16.70
2019-05-17T11:53:48.699Z,16.60
2019-05-17T11:54:52.645Z,16.50
2019-05-17T11:55:56.704Z,16.40
2019-05-17T11:57:00.652Z,16.40
2019-05-17T11:58:04.674Z,16.40
2019-05-17T11:59:08.623Z,16.40
2019-05-17T12:00:14.552Z,16.40
2019-05-17T12:01:18.621Z,16.40
2019-05-17T12:02:22.375Z,16.40
2019-05-17T12:03:26.321Z,16.40
2019-05-17T12:04:30.079Z,16.40
2019-05-17T12:05:34.092Z,16.40
2019-05-17T12:06:37.895Z,16.40
2019-05-17T12:07:41.835Z,16.40
2019-05-17T12:08:45.596Z,16.50
2019-05-17T12:09:49.531Z,16.50
2019-05-17T12:10:53.407Z,16.60
2019-05-17T12:11:57.689Z,16.50
2019-05-17T12:13:01.457Z,16.40
2019-05-17T12:14:05.402Z,16.40
2019-05-17T12:15:09.303Z,16.40
2019-05-17T12:16:13.253Z,16.40
2019-05-17T12:17:17.057Z,16.30
2019-05-17T12:18:21.009Z,16.30
2019-05-17T12:19:24.758Z,16.30
2019-05-17T12:20:28.839Z,16.20
2019-05-17T12:21:32.637Z,16.20
2019-05-17T12:22:36.615Z,16.20
2019-05-17T12:23:40.377Z,16.30
2019-05-17T12:24:44.316Z,16.30
2019-05-17T12:25:48.150Z,16.40
2019-05-17T12:26:52.091Z,16.20
2019-05-17T12:27:55.884Z,16.30
2019-05-17T12:28:59.875Z,16.30
2019-05-17T12:30:08.116Z,16.30
2019-05-17T12:31:12.041Z,16.30
2019-05-17T12:32:17.101Z,16.20
2019-05-17T12:33:21.251Z,16.30
2019-05-17T12:34:25.052Z,16.20
2019-05-17T12:35:28.998Z,16.10
2019-05-17T12:36:32.776Z,16.10
2019-05-17T12:37:36.715Z,16.10
2019-05-17T12:38:40.460Z,16.20
2019-05-17T12:39:44.445Z,16.20
2019-05-17T12:40:48.210Z,16.30
2019-05-17T12:41:52.201Z,16.30
2019-05-17T12:42:55.925Z,16.40
2019-05-17T12:43:59.867Z,16.50
2019-05-17T12:45:05.678Z,16.60
2019-05-17T12:46:09.630Z,16.70
2019-05-17T12:47:13.638Z,16.60
2019-05-17T12:48:17.589Z,16.70
2019-05-17T12:49:21.343Z,16.60
2019-05-17T12:50:25.331Z,16.70
2019-05-17T12:51:32.773Z,16.70
2019-05-17T12:52:34.716Z,16.80
2019-05-17T12:53:38.520Z,16.80
2019-05-17T12:54:42.463Z,16.80
2019-05-17T12:55:46.220Z,16.80
2019-05-17T12:56:50.159Z,16.90
2019-05-17T12:57:53.922Z,16.90
2019-05-17T12:58:57.917Z,16.80
2019-05-17T13:00:01.673Z,16.80
2019-05-17T13:01:05.629Z,16.80
2019-05-17T13:02:12.290Z,16.70
2019-05-17T13:03:14.979Z,16.60
2019-05-17T13:04:18.768Z,16.70
2019-05-17T13:05:22.706Z,16.80
2019-05-17T13:06:26.460Z,16.90
2019-05-17T13:07:30.399Z,17.00
2019-05-17T13:08:34.150Z,17.00
2019-05-17T13:09:38.132Z,17.00
2019-05-17T13:10:41.894Z,16.90
2019-05-17T13:11:45.827Z,16.80
2019-05-17T13:12:49.664Z,16.90
2019-05-17T13:13:53.733Z,16.90
2019-05-17T13:14:57.556Z,16.90
2019-05-17T13:16:16.820Z,16.90
2019-05-17T13:17:06.916Z,17.00
2019-05-17T13:18:10.852Z,16.90
2019-05-17T13:19:14.603Z,16.90
2019-05-17T13:20:18.820Z,16.90
2019-05-17T13:21:22.580Z,16.90
2019-05-17T13:22:26.515Z,16.90
2019-05-17T13:23:30.313Z,16.90
2019-05-17T13:24:34.267Z,16.90
2019-05-17T13:25:38.016Z,16.80
2019-05-17T13:26:41.965Z,16.90
2019-05-17T13:27:45.725Z,16.90
2019-05-17T13:28:49.731Z,16.80
2019-05-17T13:29:53.495Z,16.80
2019-05-17T13:30:57.568Z,16.60
2019-05-17T13:32:01.319Z,16.70
2019-05-17T13:33:05.439Z,16.80
2019-05-17T13:34:09.228Z,16.80
2019-05-17T13:35:13.921Z,16.90
2019-05-17T13:36:17.672Z,17.00
2019-05-17T13:37:21.629Z,17.10
2019-05-17T13:38:25.461Z,17.20
2019-05-17T13:39:30.435Z,17.10
2019-05-17T13:40:39.526Z,17.10
2019-05-17T13:41:39.890Z,17.20
2019-05-17T13:42:43.633Z,17.30
2019-05-17T13:43:47.597Z,17.40
2019-05-17T13:44:51.381Z,17.40
2019-05-17T13:45:55.315Z,17.50
2019-05-17T13:46:59.111Z,17.50
2019-05-17T13:48:03.093Z,17.40
2019-05-17T13:49:06.829Z,17.30
2019-05-17T13:50:11.004Z,17.20
2019-05-17T13:51:14.747Z,17.10
2019-05-17T13:52:18.721Z,17.10
2019-05-17T13:53:22.471Z,17.30
2019-05-17T13:54:26.452Z,17.40
2019-05-17T13:55:30.201Z,17.60
2019-05-17T13:56:34.235Z,17.70
2019-05-17T13:57:38.046Z,17.80
2019-05-17T13:58:41.986Z,17.90
2019-05-17T13:59:45.727Z,18.00